createdAt,value
2023-04-09T00:00:34.094Z,25.1462
2023-04-09T00:01:35.795Z,25.3769
2023-04-09T00:02:37.439Z,26.3692
2023-04-09T00:03:39.624Z,27.8769
2023-04-09T00:04:40.723Z,25.3462
2023-04-09T00:05:42.321Z,27.0000
2023-04-09T00:06:43.981Z,27.8538
2023-04-09T00:07:45.614Z,26.1538
2023-04-09T00:08:47.320Z,26.2692
2023-04-09T00:09:48.916Z,26.1846
2023-04-09T00:10:50.573Z,26.9692
2023-04-09T00:11:52.254Z,27.3154
2023-04-09T00:12:53.896Z,25.0462
2023-04-09T00:13:55.567Z,25.4308
2023-04-09T00:14:57.161Z,26.1923
2023-04-09T00:15:58.825Z,27.0154
2023-04-09T00:17:00.463Z,27.1615
2023-04-09T00:18:02.135Z,26.7615
2023-04-09T00:19:03.776Z,26.3692
2023-04-09T00:20:05.374Z,26.0462
2023-04-09T00:21:07.107Z,27.3385
2023-04-09T00:22:08.671Z,28.3692
2023-04-09T00:23:12.428Z,29.0231
2023-04-09T00:24:12.058Z,27.7692
2023-04-09T00:25:13.601Z,27.1692
2023-04-09T00:26:15.376Z,27.4846
2023-04-09T00:27:17.101Z,30.9154
2023-04-09T00:28:18.580Z,28.0000
2023-04-09T00:29:20.200Z,28.0308
2023-04-09T00:30:21.845Z,29.2923
2023-04-09T00:31:23.501Z,28.6462
2023-04-09T00:32:25.304Z,30.1308
2023-04-09T00:33:26.736Z,31.5077
2023-04-09T00:34:28.429Z,30.1846
2023-04-09T00:35:30.034Z,29.4846
2023-04-09T00:36:31.675Z,30.0154
2023-04-09T00:37:33.321Z,30.2692
2023-04-09T00:38:34.957Z,31.0308
2023-04-09T00:39:36.634Z,32.8462
2023-04-09T00:40:38.253Z,30.7077
2023-04-09T00:41:39.889Z,31.4077
2023-04-09T00:42:41.610Z,29.9077
2023-04-09T00:43:43.174Z,30.4308
2023-04-09T00:44:44.876Z,29.5692
2023-04-09T00:45:46.506Z,30.5462
2023-04-09T00:46:48.116Z,30.1615
2023-04-09T00:47:49.797Z,30.5538
2023-04-09T00:48:51.598Z,30.5231
2023-04-09T00:49:53.076Z,30.9308
2023-04-09T00:50:54.710Z,30.0077
2023-04-09T00:51:56.353Z,30.7231
2023-04-09T00:52:58.009Z,29.8154
2023-04-09T00:53:59.688Z,29.4846
2023-04-09T00:55:01.300Z,30.1846
2023-04-09T00:56:02.932Z,31.0923
2023-04-09T00:57:04.589Z,30.9308
2023-04-09T00:58:06.240Z,30.1615
2023-04-09T00:59:07.854Z,28.8846
2023-04-09T01:00:09.569Z,30.5615
2023-04-09T01:01:11.179Z,31.1385
2023-04-09T01:02:12.823Z,32.0231
2023-04-09T01:03:14.511Z,31.2923
2023-04-09T01:04:16.064Z,31.8846
2023-04-09T01:05:17.706Z,30.5154
2023-04-09T01:06:19.381Z,29.8231
2023-04-09T01:07:20.996Z,30.6000
2023-04-09T01:08:22.643Z,30.3538
2023-04-09T01:09:24.293Z,29.9923
2023-04-09T01:10:25.945Z,30.3846
2023-04-09T01:11:27.547Z,29.7615
2023-04-09T01:12:29.223Z,30.7154
2023-04-09T01:13:30.832Z,29.9692
2023-04-09T01:14:32.494Z,29.1308
2023-04-09T01:15:34.169Z,30.5077
2023-04-09T01:16:35.857Z,30.6615
2023-04-09T01:17:37.452Z,30.2538
2023-04-09T01:18:39.077Z,30.0615
2023-04-09T01:19:40.693Z,30.8615
2023-04-09T01:20:42.358Z,30.1308
2023-04-09T01:21:44.013Z,31.0154
2023-04-09T01:22:45.642Z,30.5692
2023-04-09T01:23:47.288Z,30.7923
2023-04-09T01:24:48.903Z,32.1923
2023-04-09T01:25:50.602Z,33.1923
2023-04-09T01:26:52.201Z,32.6077
2023-04-09T01:27:53.844Z,30.8231
2023-04-09T01:28:55.507Z,31.2769
2023-04-09T01:29:57.119Z,31.1231
2023-04-09T01:30:58.809Z,34.1846
2023-04-09T01:32:00.393Z,32.3077
2023-04-09T01:33:02.058Z,32.1385
2023-04-09T01:34:03.706Z,31.9385
2023-04-09T01:35:05.357Z,31.9231
2023-04-09T01:36:07.082Z,32.1692
2023-04-09T01:37:08.651Z,31.1077
2023-04-09T01:38:10.273Z,31.3077
2023-04-09T01:39:11.961Z,33.7077
2023-04-09T01:40:13.597Z,31.3077
2023-04-09T01:41:15.249Z,31.2846
2023-04-09T01:42:16.857Z,32.3769
2023-04-09T01:43:18.519Z,32.4385
2023-04-09T01:44:20.171Z,33.3769
2023-04-09T01:45:21.816Z,32.5769
2023-04-09T01:46:23.569Z,32.2154
2023-04-09T01:47:25.112Z,31.1846
2023-04-09T01:48:26.729Z,32.4615
2023-04-09T01:49:28.366Z,32.4538
2023-04-09T01:50:30.009Z,31.6231
2023-04-09T01:51:31.684Z,31.4462
2023-04-09T01:52:33.300Z,31.6077
2023-04-09T01:53:34.983Z,30.7231
2023-04-09T01:54:36.631Z,31.2615
2023-04-09T01:55:38.235Z,32.4692
2023-04-09T01:56:39.894Z,32.9769
2023-04-09T01:57:41.696Z,33.0769
2023-04-09T01:58:43.190Z,34.0000
2023-04-09T01:59:44.833Z,32.5692
2023-04-09T02:00:46.492Z,33.4692
2023-04-09T02:01:48.407Z,33.8692
2023-04-09T02:02:49.929Z,33.4154
2023-04-09T02:03:51.677Z,34.9538
2023-04-09T02:04:53.153Z,33.7000
2023-04-09T02:05:54.782Z,32.7231
2023-04-09T02:06:56.460Z,35.8231
2023-04-09T02:07:58.053Z,35.9769
2023-04-09T02:08:59.699Z,36.1077
2023-04-09T02:10:01.446Z,37.1846
2023-04-09T02:11:03.001Z,34.9308
2023-04-09T02:12:04.692Z,35.9462
2023-04-09T02:13:06.346Z,33.9308
2023-04-09T02:14:07.934Z,35.5000
2023-04-09T02:15:09.579Z,34.6231
2023-04-09T02:16:11.247Z,35.0462
2023-04-09T02:17:12.854Z,35.6308
2023-04-09T02:18:14.523Z,33.6692
2023-04-09T02:19:16.183Z,34.6385
2023-04-09T02:20:18.565Z,33.8769
2023-04-09T02:21:19.432Z,32.7154
2023-04-09T02:22:21.072Z,33.3923
2023-04-09T02:23:22.750Z,32.2000
2023-04-09T02:24:24.352Z,32.5923
2023-04-09T02:25:25.994Z,33.0308
2023-04-09T02:26:27.629Z,33.6385
2023-04-09T02:27:29.310Z,34.2077
2023-04-09T02:28:30.978Z,35.4000
2023-04-09T02:29:32.613Z,32.9692
2023-04-09T02:30:34.243Z,34.8462
2023-04-09T02:31:35.892Z,34.8538
2023-04-09T02:32:37.596Z,32.4538
2023-04-09T02:33:39.235Z,34.7385
2023-04-09T02:34:40.839Z,33.5385
2023-04-09T02:35:42.526Z,31.2846
2023-04-09T02:36:44.100Z,31.6077
2023-04-09T02:37:45.789Z,34.5923
2023-04-09T02:38:47.448Z,32.6385
2023-04-09T02:39:49.052Z,33.9231
2023-04-09T02:40:50.688Z,31.6000
2023-04-09T02:41:52.349Z,32.6692
2023-04-09T02:42:54.021Z,34.6538
2023-04-09T02:43:55.676Z,31.1385
2023-04-09T02:44:57.445Z,33.5385
2023-04-09T02:45:58.940Z,31.7231
2023-04-09T02:47:00.568Z,31.2923
2023-04-09T02:48:02.228Z,32.5769
2023-04-09T02:49:03.907Z,32.0923
2023-04-09T02:50:05.530Z,31.6846
2023-04-09T02:51:07.152Z,30.5231
2023-04-09T02:52:08.795Z,30.2462
2023-04-09T02:53:10.485Z,31.9615
2023-04-09T02:54:12.099Z,30.1462
2023-04-09T02:55:13.765Z,30.1923
2023-04-09T02:56:15.391Z,30.9077
2023-04-09T02:57:17.041Z,31.9538
2023-04-09T02:58:18.724Z,31.2385
2023-04-09T02:59:20.344Z,29.5615
2023-04-09T03:00:22.068Z,30.9615
2023-04-09T03:01:23.685Z,33.2231
2023-04-09T03:02:25.411Z,32.9385
2023-04-09T03:03:26.997Z,33.5769
2023-04-09T03:04:28.599Z,31.5385
2023-04-09T03:05:30.262Z,32.2000
2023-04-09T03:06:31.906Z,30.5538
2023-04-09T03:07:33.547Z,33.0692
2023-04-09T03:08:35.216Z,32.7923
2023-04-09T03:09:36.815Z,32.9769
2023-04-09T03:10:38.459Z,31.1615
2023-04-09T03:11:40.116Z,33.7462
2023-04-09T03:12:41.777Z,31.2000
2023-04-09T03:13:43.419Z,32.8538
2023-04-09T03:14:45.063Z,31.1615
2023-04-09T03:15:46.783Z,33.3692
2023-04-09T03:16:48.382Z,32.4308
2023-04-09T03:17:50.070Z,33.9923
2023-04-09T03:18:51.831Z,32.2923
2023-04-09T03:19:53.277Z,33.0692
2023-04-09T03:20:54.969Z,32.8308
2023-04-09T03:21:56.580Z,31.9154
2023-04-09T03:22:58.206Z,32.5923
2023-04-09T03:23:59.914Z,33.6846
2023-04-09T03:25:01.506Z,33.0923
2023-04-09T03:26:03.145Z,31.8462
2023-04-09T03:27:04.830Z,31.4308
2023-04-09T03:28:06.426Z,32.2231
2023-04-09T03:29:08.130Z,31.5769
2023-04-09T03:30:09.728Z,32.4692
2023-04-09T03:31:11.421Z,32.9308
2023-04-09T03:32:13.034Z,31.9462
2023-04-09T03:33:14.695Z,32.7538
2023-04-09T03:34:16.390Z,32.3462
2023-04-09T03:35:17.976Z,31.5231
2023-04-09T03:36:19.624Z,31.4538
2023-04-09T03:37:21.305Z,33.6000
2023-04-09T03:38:22.936Z,31.9462
2023-04-09T03:39:24.587Z,31.0923
2023-04-09T03:40:26.227Z,32.7846
2023-04-09T03:41:27.846Z,32.3154
2023-04-09T03:42:29.527Z,31.8846
2023-04-09T03:43:31.146Z,31.5923
2023-04-09T03:44:32.852Z,33.3538
2023-04-09T03:45:34.450Z,32.2231
2023-04-09T03:46:36.122Z,32.7615
2023-04-09T03:47:37.799Z,32.3231
2023-04-09T03:48:39.387Z,33.8923
2023-04-09T03:49:41.092Z,33.2846
2023-04-09T03:50:42.689Z,33.5308
2023-04-09T03:51:44.364Z,32.8154
2023-04-09T03:52:46.008Z,33.3154
2023-04-09T03:53:47.640Z,33.8077
2023-04-09T03:54:49.328Z,34.3462
2023-04-09T03:55:50.925Z,33.9692
2023-04-09T03:56:52.567Z,34.3615
2023-04-09T03:57:54.269Z,34.9308
2023-04-09T03:58:55.865Z,33.5462
2023-04-09T03:59:57.611Z,35.9231
2023-04-09T04:00:59.178Z,35.6154
2023-04-09T04:02:00.893Z,33.6462
2023-04-09T04:03:02.685Z,33.7769
2023-04-09T04:04:04.160Z,33.8615
2023-04-09T04:05:05.799Z,30.9154
2023-04-09T04:06:07.392Z,32.5000
2023-04-09T04:07:09.067Z,30.5385
2023-04-09T04:08:10.683Z,31.7385
2023-04-09T04:09:12.348Z,32.0846
2023-04-09T04:10:14.045Z,32.1462
2023-04-09T04:11:15.663Z,32.2769
2023-04-09T04:12:17.305Z,34.2769
2023-04-09T04:13:18.944Z,33.5923
2023-04-09T04:14:20.619Z,32.3692
2023-04-09T04:15:22.258Z,32.9308
2023-04-09T04:16:23.971Z,32.5615
2023-04-09T04:17:25.562Z,36.3231
2023-04-09T04:18:27.204Z,33.9231
2023-04-09T04:19:28.843Z,32.3769
2023-04-09T04:20:30.504Z,34.0231
2023-04-09T04:21:32.183Z,33.4231
2023-04-09T04:22:33.782Z,33.2769
2023-04-09T04:23:35.449Z,35.4231
2023-04-09T04:24:37.076Z,35.1077
2023-04-09T04:25:38.726Z,35.1923
2023-04-09T04:26:40.397Z,35.3000
2023-04-09T04:27:42.004Z,34.2692
2023-04-09T04:28:43.681Z,35.2615
2023-04-09T04:29:45.324Z,36.4615
2023-04-09T04:30:46.983Z,34.6462
2023-04-09T04:31:48.681Z,33.0308
2023-04-09T04:32:50.279Z,32.8154
2023-04-09T04:33:51.883Z,33.7538
2023-04-09T04:34:53.576Z,32.6846
2023-04-09T04:35:55.281Z,32.3923
2023-04-09T04:36:56.847Z,31.5769
2023-04-09T04:37:58.465Z,31.9923
2023-04-09T04:39:00.099Z,31.8538
2023-04-09T04:40:01.770Z,33.3000
2023-04-09T04:41:03.417Z,31.8923
2023-04-09T04:42:05.040Z,31.2769
2023-04-09T04:43:06.685Z,32.4462
2023-04-09T04:44:08.388Z,32.1231
2023-04-09T04:45:09.968Z,31.2846
2023-04-09T04:46:11.753Z,32.1154
2023-04-09T04:47:13.279Z,30.9231
2023-04-09T04:48:14.912Z,30.6154
2023-04-09T04:49:16.591Z,32.3769
2023-04-09T04:50:18.210Z,32.4538
2023-04-09T04:51:19.927Z,33.3231
2023-04-09T04:52:21.513Z,33.9308
2023-04-09T04:53:23.158Z,31.7077
2023-04-09T04:54:24.836Z,32.5077
2023-04-09T04:55:26.454Z,31.8692
2023-04-09T04:56:28.193Z,31.7231
2023-04-09T04:57:29.774Z,33.6385
2023-04-09T04:58:31.389Z,32.5538
2023-04-09T04:59:33.055Z,31.8846
2023-04-09T05:00:34.704Z,33.2154
2023-04-09T05:01:36.495Z,31.5385
2023-04-09T05:02:38.189Z,32.9077
2023-04-09T05:03:39.784Z,32.7000
2023-04-09T05:04:41.287Z,33.6846
2023-04-09T05:05:42.937Z,32.1308
2023-04-09T05:06:44.585Z,32.4462
2023-04-09T05:07:46.229Z,31.7846
2023-04-09T05:08:47.865Z,32.1077
2023-04-09T05:09:49.530Z,34.0308
2023-04-09T05:10:51.330Z,32.8077
2023-04-09T05:11:52.855Z,33.9231
2023-04-09T05:12:54.457Z,33.1154
2023-04-09T05:13:56.102Z,33.6615
2023-04-09T05:14:57.750Z,34.0231
2023-04-09T05:15:59.397Z,33.8462
2023-04-09T05:17:01.123Z,31.7538
2023-04-09T05:18:02.704Z,33.0923
2023-04-09T05:19:04.330Z,33.7846
2023-04-09T05:20:06.005Z,32.9385
2023-04-09T05:21:07.608Z,36.0462
2023-04-09T05:22:09.338Z,33.3000
2023-04-09T05:23:10.925Z,33.3000
2023-04-09T05:24:12.602Z,33.4000
2023-04-09T05:25:14.260Z,32.3692
2023-04-09T05:26:15.881Z,34.2231
2023-04-09T05:27:17.544Z,33.0154
2023-04-09T05:28:19.184Z,34.1692
2023-04-09T05:29:20.840Z,34.2308
2023-04-09T05:30:22.455Z,33.7462
2023-04-09T05:31:24.168Z,34.0000
2023-04-09T05:32:25.841Z,33.5462
2023-04-09T05:33:27.374Z,34.4000
2023-04-09T05:34:29.052Z,34.7385
2023-04-09T05:35:30.757Z,33.3846
2023-04-09T05:36:32.349Z,33.3154
2023-04-09T05:37:34.044Z,32.6077
2023-04-09T05:38:35.615Z,33.4385
2023-04-09T05:39:37.275Z,33.7231
2023-04-09T05:40:38.915Z,34.5154
2023-04-09T05:41:40.590Z,33.4538
2023-04-09T05:42:42.257Z,32.5077
2023-04-09T05:43:43.885Z,32.5923
2023-04-09T05:44:45.499Z,32.7077
2023-04-09T05:45:47.154Z,32.8538
2023-04-09T05:46:48.831Z,32.6615
2023-04-09T05:47:50.493Z,32.5154
2023-04-09T05:48:52.422Z,31.7923
2023-04-09T05:49:53.751Z,31.8538
2023-04-09T05:50:55.939Z,31.5308
2023-04-09T05:51:57.081Z,30.9692
2023-04-09T05:52:58.726Z,31.5462
2023-04-09T05:54:00.351Z,32.5846
2023-04-09T05:55:01.985Z,30.6077
2023-04-09T05:56:03.610Z,32.7769
2023-04-09T05:57:05.246Z,30.8308
2023-04-09T05:58:06.946Z,33.1846
2023-04-09T05:59:08.594Z,31.5615
2023-04-09T06:00:10.192Z,30.9462
2023-04-09T06:01:11.873Z,30.2077
2023-04-09T06:02:13.551Z,30.9692
2023-04-09T06:03:15.391Z,31.6385
2023-04-09T06:04:17.110Z,31.2000
2023-04-09T06:05:18.439Z,30.8154
2023-04-09T06:06:20.176Z,29.1538
2023-04-09T06:07:21.808Z,31.1538
2023-04-09T06:08:23.499Z,28.8923
2023-04-09T06:09:25.120Z,30.2077
2023-04-09T06:10:26.757Z,28.9077
2023-04-09T06:11:28.394Z,28.6692
2023-04-09T06:12:30.041Z,27.5308
2023-04-09T06:13:31.723Z,27.9308
2023-04-09T06:14:33.350Z,26.2077
2023-04-09T06:15:34.984Z,26.9308
2023-04-09T06:16:36.581Z,25.9462
2023-04-09T06:17:38.258Z,26.5308
2023-04-09T06:18:39.923Z,26.7077
2023-04-09T06:19:41.538Z,25.3846
2023-04-09T06:20:43.192Z,26.3538
2023-04-09T06:21:44.828Z,25.9000
2023-04-09T06:22:46.480Z,24.8846
2023-04-09T06:23:48.160Z,25.5538
2023-04-09T06:24:49.784Z,24.0846
2023-04-09T06:25:51.380Z,24.4538
2023-04-09T06:26:53.078Z,24.1846
2023-04-09T06:27:54.677Z,25.3923
2023-04-09T06:28:56.300Z,25.1538
2023-04-09T06:29:57.994Z,24.8462
2023-04-09T06:30:59.759Z,25.3385
2023-04-09T06:32:01.251Z,24.0308
2023-04-09T06:33:03.014Z,25.0000
2023-04-09T06:34:04.537Z,25.6231
2023-04-09T06:35:06.219Z,24.4462
2023-04-09T06:36:07.913Z,24.7077
2023-04-09T06:37:09.476Z,26.5077
2023-04-09T06:38:11.130Z,24.2000
2023-04-09T06:39:12.756Z,24.2077
2023-04-09T06:40:14.476Z,25.2769
2023-04-09T06:41:16.051Z,24.7846
2023-04-09T06:42:17.698Z,25.8846
2023-04-09T06:43:19.373Z,25.5769
2023-04-09T06:44:20.980Z,24.7692
2023-04-09T06:45:22.683Z,24.8154
2023-04-09T06:46:24.298Z,23.9231
2023-04-09T06:47:25.964Z,24.5231
2023-04-09T06:48:27.593Z,25.4923
2023-04-09T06:49:29.241Z,24.2077
2023-04-09T06:50:30.932Z,24.2615
2023-04-09T06:51:32.557Z,24.1846
2023-04-09T06:52:34.204Z,23.8846
2023-04-09T06:53:35.883Z,22.9385
2023-04-09T06:54:37.500Z,23.8077
2023-04-09T06:55:39.123Z,24.0692
2023-04-09T06:56:40.762Z,23.9231
2023-04-09T06:57:42.444Z,22.0538
2023-04-09T06:58:44.046Z,23.7846
2023-04-09T06:59:45.702Z,23.8154
2023-04-09T07:00:47.406Z,22.4923
2023-04-09T07:01:49.076Z,23.4769
2023-04-09T07:02:50.867Z,23.1615
2023-04-09T07:03:52.962Z,22.8615
2023-04-09T07:04:54.005Z,23.9846
2023-04-09T07:05:55.723Z,25.0615
2023-04-09T07:06:57.322Z,25.3769
2023-04-09T07:07:58.943Z,23.1385
2023-04-09T07:09:00.606Z,23.7308
2023-04-09T07:10:02.305Z,24.5692
2023-04-09T07:11:03.976Z,24.0231
2023-04-09T07:12:05.564Z,24.0615
2023-04-09T07:13:07.209Z,24.3846
2023-04-09T07:14:08.864Z,24.1769
2023-04-09T07:15:10.544Z,24.1000
2023-04-09T07:16:12.244Z,24.7000
2023-04-09T07:17:13.810Z,24.6462
2023-04-09T07:18:15.449Z,25.3231
2023-04-09T07:19:17.093Z,24.8538
2023-04-09T07:20:18.780Z,23.9769
2023-04-09T07:21:20.397Z,24.5462
2023-04-09T07:22:22.170Z,24.3923
2023-04-09T07:23:23.727Z,24.6692
2023-04-09T07:24:25.321Z,23.6462
2023-04-09T07:25:26.926Z,24.1846
2023-04-09T07:26:28.686Z,23.9462
2023-04-09T07:27:30.294Z,23.9154
2023-04-09T07:28:31.890Z,23.6385
2023-04-09T07:29:33.526Z,23.5385
2023-04-09T07:30:35.247Z,23.1308
2023-04-09T07:31:36.958Z,24.1000
2023-04-09T07:32:38.564Z,23.4923
2023-04-09T07:33:40.127Z,23.3923
2023-04-09T07:34:41.766Z,23.2077
2023-04-09T07:35:43.438Z,23.4154
2023-04-09T07:36:45.089Z,23.1000
2023-04-09T07:37:46.685Z,23.5846
2023-04-09T07:38:48.375Z,22.9846
2023-04-09T07:39:49.973Z,22.6462
2023-04-09T07:40:51.686Z,22.3615
2023-04-09T07:41:53.326Z,22.5231
2023-04-09T07:42:54.928Z,22.2154
2023-04-09T07:43:56.612Z,21.5154
2023-04-09T07:44:58.217Z,22.2154
2023-04-09T07:45:59.900Z,22.4846
2023-04-09T07:47:01.712Z,22.3923
2023-04-09T07:48:03.191Z,22.0615
2023-04-09T07:49:04.848Z,22.6692
2023-04-09T07:50:06.470Z,22.0923
2023-04-09T07:51:08.125Z,23.0077
2023-04-09T07:52:09.806Z,22.4769
2023-04-09T07:53:11.412Z,22.8077
2023-04-09T07:54:13.074Z,22.2308
2023-04-09T07:55:15.427Z,21.7000
2023-04-09T07:56:16.336Z,24.1000
2023-04-09T07:57:18.047Z,22.7769
2023-04-09T07:58:19.646Z,23.4769
2023-04-09T07:59:21.329Z,23.6769
2023-04-09T08:00:22.934Z,24.0077
2023-04-09T08:01:24.670Z,23.6000
2023-04-09T08:02:26.579Z,23.0846
2023-04-09T08:03:28.191Z,24.2538
2023-04-09T08:04:29.549Z,23.2231
2023-04-09T08:05:31.095Z,23.7308
2023-04-09T08:06:32.685Z,24.2769
2023-04-09T08:07:34.385Z,24.4615
2023-04-09T08:08:35.990Z,23.2769
2023-04-09T08:09:37.632Z,23.0385
2023-04-09T08:10:39.266Z,24.2154
2023-04-09T08:11:40.932Z,24.5000
2023-04-09T08:12:42.525Z,24.2385
2023-04-09T08:13:44.202Z,24.9462
2023-04-09T08:14:45.850Z,25.5538
2023-04-09T08:15:47.500Z,24.8385
2023-04-09T08:16:49.203Z,24.8000
2023-04-09T08:17:50.894Z,23.9000
2023-04-09T08:18:52.750Z,23.5385
2023-04-09T08:19:54.054Z,23.9769
2023-04-09T08:20:55.719Z,24.3077
2023-04-09T08:21:57.359Z,23.7692
2023-04-09T08:22:59.025Z,22.7308
2023-04-09T08:24:00.613Z,22.7615
2023-04-09T08:25:02.976Z,22.2154
2023-04-09T08:26:03.900Z,22.2615
2023-04-09T08:27:05.549Z,22.3923
2023-04-09T08:28:07.229Z,22.0462
2023-04-09T08:29:08.806Z,22.0462
2023-04-09T08:30:10.496Z,22.7231
2023-04-09T08:31:12.117Z,22.5846
2023-04-09T08:32:13.873Z,22.4231
2023-04-09T08:33:15.441Z,22.4308
2023-04-09T08:34:17.235Z,22.1692
2023-04-09T08:35:19.049Z,22.5000
2023-04-09T08:36:20.378Z,23.1231
2023-04-09T08:37:21.977Z,22.4077
2023-04-09T08:38:23.639Z,23.2231
2023-04-09T08:39:25.284Z,23.2077
2023-04-09T08:40:26.901Z,23.1000
2023-04-09T08:41:28.564Z,21.8846
2023-04-09T08:42:30.203Z,21.6615
2023-04-09T08:43:52.518Z,21.5692
2023-04-09T08:44:33.513Z,22.6615
2023-04-09T08:45:35.203Z,21.8154
2023-04-09T08:46:36.817Z,21.7846
2023-04-09T08:47:38.529Z,22.0846
2023-04-09T08:48:40.194Z,21.9769
2023-04-09T08:49:41.827Z,21.7692
2023-04-09T08:50:43.385Z,22.7308
2023-04-09T08:51:45.034Z,22.1923
2023-04-09T08:52:46.685Z,24.1154
2023-04-09T08:53:48.344Z,22.8000
2023-04-09T08:54:49.998Z,22.6846
2023-04-09T08:55:51.624Z,22.4077
2023-04-09T08:56:53.259Z,22.5769
2023-04-09T08:57:54.912Z,21.7769
2023-04-09T08:58:56.549Z,25.1462
2023-04-09T08:59:58.198Z,22.3385
2023-04-09T09:00:59.892Z,23.3615
2023-04-09T09:02:01.649Z,22.0308
2023-04-09T09:03:03.393Z,21.3846
2023-04-09T09:04:04.926Z,21.3385
2023-04-09T09:05:06.430Z,21.8077
2023-04-09T09:06:08.066Z,23.2385
2023-04-09T09:07:09.733Z,22.1308
2023-04-09T09:08:11.356Z,23.0385
2023-04-09T09:09:13.080Z,23.2538
2023-04-09T09:10:14.657Z,21.8000
2023-04-09T09:11:16.344Z,21.6846
2023-04-09T09:12:17.935Z,21.5308
2023-04-09T09:13:19.637Z,21.5154
2023-04-09T09:14:21.258Z,20.3231
2023-04-09T09:15:22.898Z,21.8231
2023-04-09T09:16:24.644Z,21.4000
2023-04-09T09:17:26.237Z,21.1308
2023-04-09T09:18:27.867Z,20.6308
2023-04-09T09:19:29.507Z,20.4692
2023-04-09T09:20:31.144Z,20.6154
2023-04-09T09:21:32.754Z,21.7077
2023-04-09T09:22:34.409Z,19.4846
2023-04-09T09:23:36.057Z,20.7385
2023-04-09T09:24:37.714Z,19.6077
2023-04-09T09:25:39.347Z,20.3000
2023-04-09T09:26:40.992Z,19.5308
2023-04-09T09:27:42.694Z,21.2846
2023-04-09T09:28:44.376Z,21.0000
2023-04-09T09:29:46.128Z,19.6385
2023-04-09T09:30:49.200Z,19.5308
2023-04-09T09:31:49.440Z,18.9154
2023-04-09T09:32:50.977Z,19.3077
2023-04-09T09:33:52.572Z,19.2923
2023-04-09T09:34:54.291Z,18.2462
2023-04-09T09:35:55.876Z,18.2692
2023-04-09T09:36:57.499Z,18.1846
2023-04-09T09:37:59.212Z,18.1154
2023-04-09T09:39:00.771Z,18.5000
2023-04-09T09:40:02.541Z,18.6385
2023-04-09T09:41:04.210Z,18.7000
2023-04-09T09:42:05.792Z,17.7462
2023-04-09T09:43:07.386Z,17.8077
2023-04-09T09:44:09.028Z,17.3769
2023-04-09T09:45:10.788Z,17.5846
2023-04-09T09:46:12.365Z,17.0692
2023-04-09T09:47:14.030Z,17.3000
2023-04-09T09:48:15.602Z,16.2231
2023-04-09T09:49:17.281Z,16.4462
2023-04-09T09:50:18.935Z,17.2308
2023-04-09T09:51:20.535Z,17.5000
2023-04-09T09:52:22.275Z,17.3615
2023-04-09T09:53:23.833Z,18.0308
2023-04-09T09:54:25.511Z,17.2077
2023-04-09T09:55:27.137Z,16.8846
2023-04-09T09:56:28.737Z,17.9846
2023-04-09T09:57:30.305Z,18.1615
2023-04-09T09:58:31.942Z,18.1077
2023-04-09T09:59:33.579Z,18.1154
2023-04-09T10:00:35.279Z,17.5846
2023-04-09T10:01:37.260Z,18.1538
2023-04-09T10:02:38.624Z,18.0615
2023-04-09T10:03:40.148Z,17.7308
2023-04-09T10:04:41.866Z,17.0000
2023-04-09T10:05:43.487Z,16.9538
2023-04-09T10:06:45.042Z,17.4538
2023-04-09T10:07:46.710Z,17.0692
2023-04-09T10:08:48.418Z,17.9231
2023-04-09T10:09:50.090Z,16.8385
2023-04-09T10:10:51.780Z,16.9154
2023-04-09T10:11:53.365Z,16.6538
2023-04-09T10:12:55.004Z,15.2615
2023-04-09T10:13:56.659Z,15.8000
2023-04-09T10:14:58.280Z,15.6077
2023-04-09T10:16:00.104Z,17.1462
2023-04-09T10:17:01.611Z,18.0077
2023-04-09T10:18:03.455Z,16.0231
2023-04-09T10:19:04.855Z,16.7231
2023-04-09T10:20:06.492Z,16.1538
2023-04-09T10:21:08.183Z,16.2000
2023-04-09T10:22:09.791Z,17.9231
2023-04-09T10:23:11.589Z,16.7308
2023-04-09T10:24:13.073Z,16.8538
2023-04-09T10:25:14.710Z,16.8077
2023-04-09T10:26:16.375Z,16.6154
2023-04-09T10:27:17.984Z,16.1538
2023-04-09T10:28:19.648Z,16.5385
2023-04-09T10:29:21.265Z,16.2462
2023-04-09T10:30:22.929Z,15.7692
2023-04-09T10:31:24.694Z,14.3923
2023-04-09T10:32:26.293Z,13.8385
2023-04-09T10:33:27.808Z,14.9077
2023-04-09T10:34:29.507Z,14.0077
2023-04-09T10:35:31.131Z,14.4846
2023-04-09T10:36:32.812Z,14.7000
2023-04-09T10:37:34.426Z,14.0538
2023-04-09T10:38:36.049Z,14.3846
2023-04-09T10:39:37.775Z,14.3538
2023-04-09T10:40:39.428Z,13.8077
2023-04-09T10:41:41.145Z,14.9538
2023-04-09T10:42:42.710Z,14.8385
2023-04-09T10:43:44.367Z,15.9846
2023-04-09T10:44:46.030Z,15.0846
2023-04-09T10:45:47.738Z,15.0846
2023-04-09T10:46:49.402Z,12.6077
2023-04-09T10:47:50.983Z,13.4308
2023-04-09T10:48:52.744Z,13.4846
2023-04-09T10:49:54.292Z,10.9231
2023-04-09T10:50:55.902Z,10.9923
2023-04-09T10:51:57.606Z,11.5846
2023-04-09T10:52:59.161Z,11.2769
2023-04-09T10:54:00.857Z,11.9846
2023-04-09T10:55:02.454Z,11.0077
2023-04-09T10:56:04.113Z,11.1923
2023-04-09T10:57:05.791Z,10.7692
2023-04-09T10:58:09.082Z,12.7538
2023-04-09T10:59:08.993Z,12.4538
2023-04-09T11:00:10.685Z,11.9385
2023-04-09T11:01:12.254Z,13.3769
2023-04-09T11:02:14.042Z,11.8000
2023-04-09T11:03:15.697Z,11.4923
2023-04-09T11:04:17.150Z,10.1000
2023-04-09T11:05:18.831Z,11.3462
2023-04-09T11:06:20.501Z,12.1000
2023-04-09T11:07:22.162Z,12.3923
2023-04-09T11:08:23.787Z,11.4462
2023-04-09T11:09:25.457Z,11.3769
2023-04-09T11:10:27.036Z,12.0308
2023-04-09T11:11:28.685Z,12.0538
2023-04-09T11:12:30.397Z,11.6077
2023-04-09T11:13:31.995Z,11.5769
2023-04-09T11:14:33.618Z,11.7154
2023-04-09T11:15:35.215Z,11.0538
2023-04-09T11:16:36.941Z,11.0000
2023-04-09T11:17:38.605Z,11.0692
2023-04-09T11:18:40.142Z,10.8538
2023-04-09T11:19:41.812Z,10.7385
2023-04-09T11:20:43.430Z,9.9462
2023-04-09T11:21:45.052Z,9.7923
2023-04-09T11:22:46.733Z,10.5385
2023-04-09T11:23:48.333Z,10.4231
2023-04-09T11:24:50.009Z,10.4308
2023-04-09T11:25:51.727Z,9.5154
2023-04-09T11:26:53.297Z,9.6231
2023-04-09T11:27:54.978Z,11.0231
2023-04-09T11:28:56.586Z,11.4462
2023-04-09T11:29:58.212Z,10.5231
2023-04-09T11:30:59.865Z,10.5385
2023-04-09T11:32:01.632Z,10.1538
2023-04-09T11:33:03.224Z,9.6231
2023-04-09T11:34:04.774Z,10.1154
2023-04-09T11:35:06.411Z,10.0538
2023-04-09T11:36:08.205Z,9.9846
2023-04-09T11:37:09.743Z,9.7462
2023-04-09T11:38:11.454Z,11.1308
2023-04-09T11:39:12.981Z,9.5923
2023-04-09T11:40:14.653Z,9.2000
2023-04-09T11:41:16.208Z,9.0385
2023-04-09T11:42:17.824Z,8.9077
2023-04-09T11:43:19.478Z,10.4231
2023-04-09T11:44:21.125Z,8.5231
2023-04-09T11:45:22.728Z,9.3615
2023-04-09T11:46:24.404Z,9.5000
2023-04-09T11:47:26.048Z,8.9692
2023-04-09T11:48:27.744Z,9.3769
2023-04-09T11:49:29.311Z,8.9077
2023-04-09T11:50:30.986Z,9.5538
2023-04-09T11:51:32.594Z,8.9769
2023-04-09T11:52:34.224Z,9.9154
2023-04-09T11:53:35.917Z,9.1231
2023-04-09T11:54:37.473Z,8.6308
2023-04-09T11:55:39.150Z,8.1615
2023-04-09T11:56:40.766Z,7.9462
2023-04-09T11:57:42.526Z,8.0000
2023-04-09T11:58:44.096Z,7.7846
2023-04-09T11:59:45.736Z,8.9615
2023-04-09T12:00:47.309Z,9.0077
2023-04-09T12:01:49.025Z,8.9538
2023-04-09T12:02:50.618Z,8.6923
2023-04-09T12:03:52.375Z,9.3846
2023-04-09T12:04:53.936Z,8.8538
2023-04-09T12:05:55.498Z,8.4231
2023-04-09T12:06:57.137Z,8.3923
2023-04-09T12:07:58.862Z,7.7385
2023-04-09T12:09:00.474Z,9.3692
2023-04-09T12:10:02.060Z,8.7231
2023-04-09T12:11:03.674Z,8.7077
2023-04-09T12:12:05.326Z,9.0462
2023-04-09T12:13:06.989Z,8.8692
2023-04-09T12:14:08.653Z,8.3692
2023-04-09T12:15:10.259Z,8.2615
2023-04-09T12:16:11.941Z,7.6923
2023-04-09T12:17:13.540Z,8.0385
2023-04-09T12:18:15.235Z,8.5462
2023-04-09T12:19:16.938Z,8.3077
2023-04-09T12:20:18.539Z,7.8538
2023-04-09T12:21:20.165Z,7.6846
2023-04-09T12:22:21.785Z,8.5846
2023-04-09T12:23:23.365Z,7.0077
2023-04-09T12:24:25.081Z,7.4308
2023-04-09T12:25:26.641Z,7.2923
2023-04-09T12:26:28.311Z,7.9000
2023-04-09T12:27:31.216Z,7.7615